Time;durP1;ratioP1;P1;durP2;ratioP2;P2;SDS_P1;SDS_P2;PMS_P1;PMS_P2;Temp;Humidity;BMP_temperature;BMP_pressure;BME280_temperature;BME280_humidity;BME280_pressure;Samples;Min_cycle;Max_cycle;Signal;HPM_P1;HPM_P2
2022/01/03 00:00:15;;;;;;;6.05;1.58;;;8.70;99.90;;;;;;5008932;28;20428;-67
2022/01/03 00:02:41;;;;;;;6.43;1.10;;;8.80;99.90;;;;;;5014499;28;20572;-66
2022/01/03 00:05:08;;;;;;;10.40;1.42;;;8.70;99.90;;;;;;4996794;28;20099;-75
2022/01/03 00:07:37;;;;;;;;;;;8.70;99.90;;;;;;4995347;28;20064;-67
2022/01/03 00:10:04;;;;;;;9.25;0.93;;;8.70;99.90;;;;;;5015281;28;19929;-67
2022/01/03 00:12:31;;;;;;;8.48;1.30;;;8.70;99.90;;;;;;5017931;28;20037;-66
2022/01/03 00:14:56;;;;;;;;;;;8.70;99.90;;;;;;4998355;28;20072;-67
2022/01/03 00:17:22;;;;;;;17.42;1.55;;;8.70;99.90;;;;;;5012507;28;20370;-66
2022/01/03 00:19:47;;;;;;;7.05;2.03;;;8.60;99.90;;;;;;5009188;28;20438;-67
2022/01/03 00:22:16;;;;;;;13.70;1.57;;;8.60;99.90;;;;;;4994635;28;20053;-66
2022/01/03 00:24:55;;;;;;;7.68;1.63;;;8.60;99.90;;;;;;5010024;28;20376;-66
2022/01/03 00:27:23;;;;;;;11.35;2.05;;;8.60;99.90;;;;;;5010726;28;20049;-68
2022/01/03 00:29:51;;;;;;;12.95;1.98;;;8.60;99.90;;;;;;5005302;28;20536;-66
2022/01/03 00:32:20;;;;;;;8.95;1.67;;;8.70;99.90;;;;;;5007902;28;20110;-67
2022/01/03 00:34:51;;;;;;;23.77;4.32;;;8.60;99.90;;;;;;5007434;28;20077;-67
2022/01/03 00:37:21;;;;;;;12.68;2.33;;;8.60;99.90;;;;;;5010343;28;20037;-67
2022/01/03 00:39:47;;;;;;;10.93;1.67;;;8.70;99.90;;;;;;5008527;28;20461;-67
2022/01/03 00:42:14;;;;;;;17.98;2.50;;;8.60;99.90;;;;;;5010398;28;20144;-67
2022/01/03 00:44:42;;;;;;;12.70;1.75;;;8.60;99.90;;;;;;5007877;28;20128;-66
2022/01/03 00:47:10;;;;;;;12.90;2.20;;;8.60;99.90;;;;;;5011708;28;20040;-67
2022/01/03 00:49:38;;;;;;;9.07;2.33;;;8.60;99.90;;;;;;5007669;28;20076;-67
2022/01/03 00:52:04;;;;;;;18.27;2.35;;;8.60;99.90;;;;;;5007735;28;20040;-66
2022/01/03 00:54:30;;;;;;;19.40;3.13;;;8.60;99.90;;;;;;5004929;28;20037;-66
2022/01/03 00:57:00;;;;;;;21.00;3.08;;;8.60;99.90;;;;;;5009437;28;20049;-67
2022/01/03 00:59:39;;;;;;;15.93;2.40;;;8.60;99.90;;;;;;4993558;28;20132;-67
2022/01/03 01:02:08;;;;;;;16.35;2.50;;;8.60;99.90;;;;;;5006794;28;20564;-67
2022/01/03 01:04:34;;;;;;;9.85;1.75;;;8.60;99.90;;;;;;4994143;28;20045;-66
2022/01/03 01:07:00;;;;;;;18.45;4.05;;;8.60;99.90;;;;;;5010701;28;20508;-68
2022/01/03 01:09:27;;;;;;;15.37;2.90;;;8.60;99.90;;;;;;5009230;28;20041;-66
2022/01/03 01:11:55;;;;;;;19.58;3.08;;;8.60;99.90;;;;;;5007521;28;20338;-65
2022/01/03 01:14:22;;;;;;;19.27;2.83;;;8.60;99.90;;;;;;5009052;28;20432;-66
2022/01/03 01:16:48;;;;;;;13.82;2.33;;;8.60;99.90;;;;;;4991927;28;20152;-66
2022/01/03 01:19:14;;;;;;;16.33;3.10;;;8.70;99.90;;;;;;5009273;28;20569;-66
2022/01/03 01:21:41;;;;;;;11.33;2.30;;;8.70;99.90;;;;;;5010956;28;20091;-66
2022/01/03 01:24:07;;;;;;;19.50;2.90;;;8.80;99.90;;;;;;4990148;28;20466;-67
2022/01/03 01:29:18;;;;;;;17.65;2.33;;;8.80;99.90;;;;;;5007731;28;20061;-66
2022/01/03 01:31:50;;;;;;;14.93;3.20;;;8.80;99.90;;;;;;5009806;28;20114;-65
2022/01/03 01:34:22;;;;;;;13.77;1.77;;;8.90;99.90;;;;;;5010254;28;20072;-65
2022/01/03 01:36:52;;;;;;;26.05;4.53;;;8.90;99.90;;;;;;5012170;28;20061;-66
2022/01/03 01:39:20;;;;;;;12.02;2.45;;;8.90;99.90;;;;;;4990119;28;20148;-65
2022/01/03 01:41:46;;;;;;;24.73;3.20;;;8.90;99.90;;;;;;4991528;28;20553;-66
2022/01/03 01:44:13;;;;;;;15.48;2.72;;;8.90;99.90;;;;;;5009684;28;20038;-66
2022/01/03 01:46:46;;;;;;;16.45;2.10;;;8.90;99.90;;;;;;4993937;28;20402;-66
2022/01/03 01:49:17;;;;;;;18.08;2.80;;;9.00;99.90;;;;;;4998227;28;20108;-66
2022/01/03 01:51:46;;;;;;;11.05;1.90;;;9.00;99.90;;;;;;4991777;28;20648;-66
2022/01/03 01:54:15;;;;;;;15.60;3.22;;;9.00;99.90;;;;;;5006782;28;20045;-66
2022/01/03 01:57:07;;;;;;;18.88;3.17;;;9.00;99.90;;;;;;5011382;28;20029;-67
2022/01/03 01:59:44;;;;;;;15.07;2.65;;;9.00;99.90;;;;;;5003517;28;20387;-66
2022/01/03 02:02:14;;;;;;;15.18;3.03;;;9.00;99.90;;;;;;5007336;28;20041;-66
2022/01/03 02:04:46;;;;;;;15.98;2.83;;;9.00;99.90;;;;;;5007383;28;20114;-65
2022/01/03 02:07:23;;;;;;;14.43;3.60;;;9.00;99.90;;;;;;5007183;28;20045;-66
2022/01/03 02:10:03;;;;;;;21.80;3.05;;;8.90;99.90;;;;;;5005058;28;20103;-65
2022/01/03 02:12:33;;;;;;;22.13;3.30;;;8.90;99.90;;;;;;5008343;28;20041;-66
2022/01/03 02:14:59;;;;;;;21.27;3.35;;;8.90;99.90;;;;;;4986835;28;20046;-66
2022/01/03 02:17:25;;;;;;;19.08;2.42;;;8.90;99.90;;;;;;5007951;28;20027;-65
2022/01/03 02:20:20;;;;;;;19.07;2.60;;;8.90;99.90;;;;;;5005130;28;20037;-66
2022/01/03 02:22:46;;;;;;;13.07;2.20;;;8.80;99.90;;;;;;4992119;28;20098;-67
2022/01/03 02:25:16;;;;;;;11.27;2.08;;;8.80;99.90;;;;;;4992035;28;20092;-67
2022/01/03 02:27:42;;;;;;;22.58;3.35;;;8.80;99.90;;;;;;5006424;28;20044;-66
2022/01/03 02:30:11;;;;;;;19.00;2.70;;;8.80;99.90;;;;;;5007107;28;20765;-66
2022/01/03 02:32:37;;;;;;;18.98;2.20;;;8.70;99.90;;;;;;4983321;28;20474;-66
2022/01/03 02:35:05;;;;;;;15.35;4.47;;;8.80;99.90;;;;;;5008671;28;20096;-66
2022/01/03 02:37:31;;;;;;;21.23;2.88;;;8.80;99.90;;;;;;5005251;28;20115;-67
2022/01/03 02:39:57;;;;;;;27.30;4.22;;;8.70;99.90;;;;;;5005209;28;20437;-67
2022/01/03 02:42:26;;;;;;;18.17;2.67;;;8.70;99.90;;;;;;4987992;28;20453;-67
2022/01/03 02:45:02;;;;;;;22.33;2.95;;;8.70;99.90;;;;;;5005350;28;20053;-67
2022/01/03 02:47:27;;;;;;;13.68;2.72;;;8.70;99.90;;;;;;5004729;28;20037;-67
2022/01/03 02:49:53;;;;;;;25.83;3.70;;;8.70;99.90;;;;;;4990491;28;20096;-66
2022/01/03 02:52:19;;;;;;;21.60;3.13;;;8.70;99.90;;;;;;5008082;28;20200;-67
2022/01/03 02:54:45;;;;;;;25.13;3.33;;;8.70;99.90;;;;;;5007523;28;20060;-67
2022/01/03 02:57:11;;;;;;;21.88;3.35;;;8.70;99.90;;;;;;5011329;28;20529;-66
2022/01/03 02:59:39;;;;;;;19.00;2.57;;;8.70;99.90;;;;;;4993204;28;20062;-67
2022/01/03 03:02:05;;;;;;;16.95;3.67;;;8.70;99.90;;;;;;5009986;28;20030;-67
2022/01/03 03:04:31;;;;;;;24.50;2.67;;;8.70;99.90;;;;;;5008706;28;20339;-67
2022/01/03 03:06:56;;;;;;;20.37;2.90;;;8.70;99.90;;;;;;4991891;28;20048;-67
2022/01/03 03:09:22;;;;;;;12.07;3.10;;;8.70;99.90;;;;;;5010479;28;20099;-66
2022/01/03 03:11:48;;;;;;;26.03;2.60;;;8.70;99.90;;;;;;5008235;28;20459;-67
2022/01/03 03:14:13;;;;;;;25.77;3.87;;;8.70;99.90;;;;;;4994011;28;20041;-67
2022/01/03 03:16:40;;;;;;;18.57;2.93;;;8.70;99.90;;;;;;5012176;28;20668;-66
2022/01/03 03:19:06;;;;;;;19.40;3.33;;;8.70;99.90;;;;;;5005939;28;20042;-67
2022/01/03 03:21:32;;;;;;;21.27;3.23;;;8.60;99.90;;;;;;5009932;28;20049;-66
2022/01/03 03:23:58;;;;;;;25.63;3.43;;;8.60;99.90;;;;;;5005870;28;20514;-66
2022/01/03 03:26:24;;;;;;;18.25;2.65;;;8.60;99.90;;;;;;4993500;28;20049;-66
2022/01/03 03:28:50;;;;;;;19.57;2.83;;;8.60;99.90;;;;;;5008437;28;20041;-66
2022/01/03 03:31:15;;;;;;;16.27;3.23;;;8.60;99.90;;;;;;5009662;28;20124;-66
2022/01/03 03:33:41;;;;;;;14.83;3.03;;;8.60;99.90;;;;;;5008901;28;20034;-66
2022/01/03 03:36:07;;;;;;;19.30;3.65;;;8.60;99.90;;;;;;5010217;28;20037;-66
2022/01/03 03:38:33;;;;;;;15.45;2.88;;;8.60;99.90;;;;;;4994585;28;20655;-66
2022/01/03 03:41:02;;;;;;;14.37;2.60;;;8.70;99.90;;;;;;5010470;28;20033;-65
2022/01/03 03:43:30;;;;;;;22.20;3.47;;;8.70;99.90;;;;;;5008011;28;20046;-66
2022/01/03 03:45:56;;;;;;;20.00;3.13;;;8.60;99.90;;;;;;5006751;28;20460;-65
2022/01/03 03:48:22;;;;;;;24.42;3.58;;;8.60;99.90;;;;;;4994374;28;20044;-66
2022/01/03 03:50:48;;;;;;;26.13;4.55;;;8.60;99.90;;;;;;5011646;28;20307;-66
2022/01/03 03:53:14;;;;;;;22.97;3.17;;;8.70;99.90;;;;;;5009803;28;20042;-66
2022/01/03 03:55:40;;;;;;;22.20;2.97;;;8.70;99.90;;;;;;4993364;28;20046;-66
2022/01/03 03:58:06;;;;;;;27.77;3.20;;;8.70;99.90;;;;;;5010272;28;20306;-72
2022/01/03 04:00:33;;;;;;;19.07;3.07;;;8.70;99.90;;;;;;5014832;28;20711;-66
2022/01/03 04:02:59;;;;;;;21.60;3.10;;;8.70;99.90;;;;;;4991963;28;20474;-66
2022/01/03 04:05:25;;;;;;;22.73;3.03;;;8.70;99.90;;;;;;5009465;28;20049;-66
2022/01/03 04:07:50;;;;;;;18.58;2.72;;;8.60;99.90;;;;;;4992910;28;20092;-66
2022/01/03 04:10:16;;;;;;;19.13;2.60;;;8.70;99.90;;;;;;5009252;28;20033;-66
2022/01/03 04:12:44;;;;;;;17.45;3.90;;;8.60;99.90;;;;;;5013959;28;20498;-66
2022/01/03 04:15:10;;;;;;;27.23;5.35;;;8.60;99.90;;;;;;5010449;28;20057;-66
2022/01/03 04:17:36;;;;;;;21.23;3.50;;;8.60;99.90;;;;;;4993152;28;20103;-66
2022/01/03 04:20:05;;;;;;;16.05;2.85;;;8.60;99.90;;;;;;4996932;28;20498;-65
2022/01/03 04:22:30;;;;;;;21.02;2.65;;;8.60;99.90;;;;;;5011171;28;20044;-66
2022/01/03 04:24:56;;;;;;;14.90;3.07;;;8.60;99.90;;;;;;5013126;28;20045;-66
2022/01/03 04:27:22;;;;;;;26.07;3.80;;;8.50;99.90;;;;;;5009898;28;20033;-66
2022/01/03 04:29:47;;;;;;;21.00;3.60;;;8.50;99.90;;;;;;5012210;28;20052;-66
2022/01/03 04:32:13;;;;;;;19.37;3.03;;;8.50;99.90;;;;;;4995241;28;20088;-66
2022/01/03 04:34:38;;;;;;;18.80;3.20;;;8.50;99.90;;;;;;5010867;28;20038;-66
2022/01/03 04:37:04;;;;;;;18.20;4.33;;;8.50;99.90;;;;;;5013014;28;20029;-65
2022/01/03 04:39:30;;;;;;;20.30;2.97;;;8.50;99.90;;;;;;5009990;28;20419;-66
2022/01/03 04:41:55;;;;;;;21.90;3.78;;;8.50;99.90;;;;;;5013872;28;20482;-66
2022/01/03 04:44:21;;;;;;;10.47;3.37;;;8.40;99.90;;;;;;5015215;28;20163;-66
2022/01/03 04:46:47;;;;;;;19.70;3.47;;;8.50;99.90;;;;;;5013413;28;20107;-66
2022/01/03 04:49:12;;;;;;;32.90;3.10;;;8.50;99.90;;;;;;5014902;28;20197;-66
2022/01/03 04:51:39;;;;;;;22.37;3.20;;;8.50;99.90;;;;;;5014852;28;20335;-65
2022/01/03 04:54:06;;;;;;;23.13;3.47;;;8.50;99.90;;;;;;4991747;28;20056;-67
2022/01/03 04:56:33;;;;;;;32.90;3.97;;;8.40;99.90;;;;;;5000144;28;20037;-66
2022/01/03 04:58:59;;;;;;;20.40;3.75;;;8.50;99.90;;;;;;5017402;28;20045;-68
2022/01/03 05:01:25;;;;;;;33.28;4.22;;;8.50;99.90;;;;;;5002261;28;20045;-69
2022/01/03 05:03:52;;;;;;;20.37;2.97;;;8.50;99.90;;;;;;5010448;28;20445;-69
2022/01/03 05:06:18;;;;;;;23.40;3.20;;;8.50;99.90;;;;;;5003961;28;20057;-70
2022/01/03 05:08:45;;;;;;;19.48;3.72;;;8.50;99.90;;;;;;4996981;28;20052;-67
2022/01/03 05:11:10;;;;;;;24.17;3.65;;;8.50;99.90;;;;;;5018110;28;20438;-67
2022/01/03 05:13:39;;;;;;;23.33;3.45;;;8.50;99.90;;;;;;5025201;28;20040;-66
2022/01/03 05:16:05;;;;;;;25.05;3.22;;;8.50;99.90;;;;;;4993802;28;20041;-67
2022/01/03 05:18:33;;;;;;;18.53;3.80;;;8.50;99.90;;;;;;5023670;28;20120;-67
2022/01/03 05:20:59;;;;;;;24.63;3.80;;;8.60;99.90;;;;;;5011477;28;20116;-67
2022/01/03 05:23:24;;;;;;;19.93;4.00;;;8.60;99.90;;;;;;4986886;28;20486;-69
2022/01/03 05:25:50;;;;;;;18.97;3.80;;;8.50;99.90;;;;;;4983591;28;20625;-69
2022/01/03 05:28:16;;;;;;;22.83;3.53;;;8.50;99.90;;;;;;4986995;28;20481;-69
2022/01/03 05:30:43;;;;;;;22.48;3.38;;;8.50;99.90;;;;;;4984894;28;20053;-69
2022/01/03 05:33:09;;;;;;;26.27;3.35;;;8.50;99.90;;;;;;5000031;28;20061;-69
2022/01/03 05:35:35;;;;;;;21.77;2.92;;;8.50;99.90;;;;;;4984169;28;20065;-69
2022/01/03 05:38:00;;;;;;;29.07;3.77;;;8.50;99.90;;;;;;5001334;28;20583;-69
2022/01/03 05:40:26;;;;;;;28.97;3.23;;;8.50;99.90;;;;;;4989106;28;20049;-69
2022/01/03 05:42:52;;;;;;;25.97;3.77;;;8.60;99.90;;;;;;4986915;28;20041;-69
2022/01/03 05:45:18;;;;;;;31.07;3.80;;;8.60;99.90;;;;;;4986440;28;20601;-69
2022/01/03 05:47:46;;;;;;;22.92;3.40;;;8.60;99.90;;;;;;5031321;23;20120;-69
2022/01/03 05:50:13;;;;;;;30.55;5.53;;;8.60;99.90;;;;;;4999179;28;20406;-70
2022/01/03 05:52:38;;;;;;;32.97;5.20;;;8.50;99.90;;;;;;5022273;28;20041;-70
2022/01/03 05:55:05;;;;;;;30.10;4.00;;;8.60;99.90;;;;;;5026642;28;20410;-70
2022/01/03 05:57:32;;;;;;;23.85;4.05;;;8.50;99.90;;;;;;5002521;28;20109;-69
2022/01/03 05:59:58;;;;;;;24.83;4.10;;;8.50;99.90;;;;;;5004020;28;20123;-69
2022/01/03 06:02:25;;;;;;;19.67;3.22;;;8.50;99.90;;;;;;4996313;28;20125;-69
2022/01/03 06:05:00;;;;;;;30.02;4.18;;;8.50;99.90;;;;;;5002149;28;20061;-69
2022/01/03 06:07:25;;;;;;;24.23;3.58;;;8.50;99.90;;;;;;4993506;28;20087;-70
2022/01/03 06:09:54;;;;;;;13.33;3.07;;;8.50;99.90;;;;;;5000675;28;20075;-70
2022/01/03 06:12:20;;;;;;;26.75;4.40;;;8.50;99.90;;;;;;5017694;28;20045;-69
2022/01/03 06:14:49;;;;;;;24.15;4.80;;;8.50;99.90;;;;;;5022159;28;20456;-69
2022/01/03 06:17:15;;;;;;;28.05;3.50;;;8.50;99.90;;;;;;5001784;28;20041;-69
2022/01/03 06:19:41;;;;;;;29.73;3.42;;;8.50;99.90;;;;;;5007990;28;20038;-69
2022/01/03 06:22:09;;;;;;;25.95;3.40;;;8.60;99.90;;;;;;5012219;28;20389;-69
2022/01/03 06:24:37;;;;;;;30.55;3.85;;;8.50;99.90;;;;;;5028464;28;20430;-69
2022/01/03 06:27:03;;;;;;;16.83;3.38;;;8.60;99.90;;;;;;5005712;28;20041;-69
2022/01/03 06:29:28;;;;;;;36.83;6.22;;;8.50;99.90;;;;;;5018937;28;20034;-70
2022/01/03 06:31:54;;;;;;;23.93;3.77;;;8.60;99.90;;;;;;5007171;28;20049;-69
2022/01/03 06:34:19;;;;;;;26.03;4.13;;;8.60;99.90;;;;;;5006347;28;20041;-69
2022/01/03 06:36:45;;;;;;;33.80;4.40;;;8.60;99.90;;;;;;5019259;28;20037;-69
2022/01/03 06:39:12;;;;;;;17.33;4.20;;;8.60;99.90;;;;;;5018178;28;20060;-70
2022/01/03 06:41:39;;;;;;;30.73;4.80;;;8.60;99.90;;;;;;5008845;28;20413;-70
2022/01/03 06:44:08;;;;;;;26.05;3.55;;;8.50;99.90;;;;;;5014685;28;20040;-69
2022/01/03 06:46:33;;;;;;;26.35;4.35;;;8.50;99.90;;;;;;5017747;28;20449;-70
2022/01/03 06:49:00;;;;;;;26.60;3.93;;;8.60;99.90;;;;;;5016390;28;20041;-69
2022/01/03 06:51:31;;;;;;;23.00;3.45;;;8.50;99.90;;;;;;5016636;28;20302;-70
2022/01/03 06:53:56;;;;;;;26.27;3.78;;;8.50;99.90;;;;;;5025151;28;20529;-69
2022/01/03 06:56:25;;;;;;;30.53;3.90;;;8.50;99.90;;;;;;5000585;28;20064;-69
2022/01/03 06:58:50;;;;;;;29.40;3.42;;;8.50;99.90;;;;;;5024031;28;20048;-70
2022/01/03 07:01:16;;;;;;;20.03;3.40;;;8.50;99.90;;;;;;5020160;28;20034;-70
2022/01/03 07:03:41;;;;;;;17.37;3.93;;;8.50;99.90;;;;;;5012763;28;20030;-69
2022/01/03 07:06:07;;;;;;;31.40;5.10;;;8.60;99.90;;;;;;4998974;28;20068;-69
2022/01/03 07:08:32;;;;;;;25.33;3.63;;;8.60;99.90;;;;;;5016077;28;20034;-69
2022/01/03 07:10:58;;;;;;;24.17;3.87;;;8.50;99.90;;;;;;5014006;28;20062;-69
2022/01/03 07:13:26;;;;;;;25.35;3.95;;;8.60;99.90;;;;;;5000584;28;20042;-69
2022/01/03 07:21:20;;;;;;;20.77;3.78;;;8.60;99.90;;;;;;5000075;28;20486;-69
2022/01/03 07:23:45;;;;;;;38.53;5.20;;;8.50;99.90;;;;;;5022447;28;20041;-69
2022/01/03 07:26:11;;;;;;;27.03;4.63;;;8.60;99.90;;;;;;5023394;28;20137;-69
2022/01/03 07:28:36;;;;;;;20.03;3.10;;;8.60;99.90;;;;;;5021353;28;20038;-69
2022/01/03 07:31:02;;;;;;;27.10;5.17;;;8.60;99.90;;;;;;5021845;28;20413;-70
2022/01/03 07:33:28;;;;;;;26.25;3.45;;;8.70;99.90;;;;;;5020472;28;20041;-69
2022/01/03 07:35:54;;;;;;;27.87;4.47;;;8.60;99.90;;;;;;5004004;28;20046;-65
2022/01/03 07:38:19;;;;;;;27.40;4.53;;;8.60;99.90;;;;;;4999876;28;20505;-66
2022/01/03 07:40:45;;;;;;;19.33;3.17;;;8.70;99.90;;;;;;5027013;28;20048;-65
2022/01/03 07:43:11;;;;;;;22.40;4.10;;;8.70;99.90;;;;;;5023000;28;20073;-65
2022/01/03 07:45:36;;;;;;;27.37;4.93;;;8.80;99.90;;;;;;5013629;28;20486;-65
2022/01/03 07:48:02;;;;;;;22.87;5.27;;;8.80;99.90;;;;;;5008052;28;20080;-66
2022/01/03 07:50:28;;;;;;;21.47;3.90;;;8.80;99.90;;;;;;4995010;28;20046;-66
2022/01/03 07:52:54;;;;;;;22.08;3.60;;;8.80;99.90;;;;;;5030528;28;20112;-73
2022/01/03 07:55:19;;;;;;;23.77;3.23;;;8.80;99.90;;;;;;5007794;28;20184;-74
2022/01/03 07:57:45;;;;;;;24.27;3.97;;;8.80;99.90;;;;;;5033251;28;20034;-66
2022/01/03 08:00:15;;;;;;;22.42;4.25;;;8.80;99.90;;;;;;5004230;28;20049;-66
2022/01/03 08:02:41;;;;;;;22.05;3.60;;;8.90;99.90;;;;;;5021771;28;20045;-66
2022/01/03 08:05:10;;;;;;;23.67;3.53;;;8.90;99.90;;;;;;5004927;28;20056;-66
2022/01/03 08:07:36;;;;;;;28.42;3.85;;;8.90;99.90;;;;;;5016121;28;20131;-65
2022/01/03 08:10:04;;;;;;;37.33;4.68;;;8.90;99.90;;;;;;4996831;28;20084;-65
2022/01/03 08:12:30;;;;;;;27.48;4.45;;;8.90;99.90;;;;;;5012348;28;20509;-66
2022/01/03 08:14:56;;;;;;;21.67;3.83;;;8.90;99.90;;;;;;5003575;28;20045;-66
2022/01/03 08:17:22;;;;;;;21.70;4.30;;;9.00;99.90;;;;;;5002554;28;20140;-65
2022/01/03 08:19:47;;;;;;;22.77;3.57;;;9.00;99.90;;;;;;5023700;28;20119;-66
2022/01/03 08:22:13;;;;;;;27.97;6.50;;;9.00;99.90;;;;;;5023937;28;20065;-66
2022/01/03 08:24:38;;;;;;;36.00;4.90;;;9.00;99.90;;;;;;5017239;28;20053;-66
2022/01/03 08:27:04;;;;;;;28.77;3.60;;;9.00;99.90;;;;;;5011507;28;20255;-66
2022/01/03 08:29:30;;;;;;;20.80;3.60;;;9.00;99.90;;;;;;5005687;28;20064;-66
2022/01/03 08:31:56;;;;;;;35.05;5.00;;;9.00;99.90;;;;;;5016715;28;20073;-66
2022/01/03 08:34:21;;;;;;;28.53;4.30;;;9.00;99.90;;;;;;5039020;28;20045;-65
2022/01/03 08:36:47;;;;;;;17.57;3.23;;;9.10;99.90;;;;;;5009568;28;20147;-66
2022/01/03 08:39:13;;;;;;;28.40;3.57;;;9.10;99.90;;;;;;5008385;28;20040;-66
2022/01/03 08:41:38;;;;;;;33.17;3.93;;;9.10;99.90;;;;;;5016118;28;20045;-66
2022/01/03 08:44:05;;;;;;;24.17;3.80;;;9.00;99.90;;;;;;5018230;28;20137;-66
2022/01/03 08:46:31;;;;;;;28.05;3.38;;;9.10;99.90;;;;;;5006217;28;20047;-66
2022/01/03 08:48:56;;;;;;;25.87;4.07;;;9.10;99.90;;;;;;5026970;28;20037;-66
2022/01/03 08:51:22;;;;;;;14.80;3.00;;;9.10;99.90;;;;;;5005303;28;20463;-66
2022/01/03 08:53:47;;;;;;;32.47;4.87;;;9.10;99.90;;;;;;5007951;28;20045;-66
2022/01/03 08:56:13;;;;;;;19.90;3.17;;;9.10;99.90;;;;;;5003099;28;20561;-65
2022/01/03 08:58:39;;;;;;;17.80;3.73;;;9.20;99.90;;;;;;5006625;28;20478;-66
2022/01/03 09:01:04;;;;;;;22.53;4.90;;;9.20;99.90;;;;;;5002812;28;20128;-66
2022/01/03 09:03:30;;;;;;;26.93;4.20;;;9.10;99.90;;;;;;5023818;28;20033;-66
2022/01/03 09:05:56;;;;;;;19.23;3.40;;;9.10;99.90;;;;;;5026527;28;20139;-65
2022/01/03 09:08:23;;;;;;;31.20;4.18;;;9.20;99.90;;;;;;5023871;28;20045;-66
2022/01/03 09:10:50;;;;;;;27.25;3.85;;;9.20;99.90;;;;;;5016441;28;20053;-65
2022/01/03 09:13:16;;;;;;;28.58;3.17;;;9.20;99.90;;;;;;5021858;28;20056;-65
2022/01/03 09:15:44;;;;;;;30.45;4.72;;;9.10;99.90;;;;;;5002519;28;20474;-66
2022/01/03 09:18:18;;;;;;;22.83;4.45;;;9.20;99.90;;;;;;5000323;28;20041;-65
2022/01/03 09:20:44;;;;;;;20.08;3.97;;;9.20;99.90;;;;;;5010002;28;20107;-65
2022/01/03 09:23:16;;;;;;;32.80;3.20;;;9.20;99.90;;;;;;4994114;28;20121;-65
2022/01/03 09:30:55;;;;;;;22.10;2.95;;;9.20;99.90;;;;;;5022393;28;20108;-66
2022/01/03 09:33:20;;;;;;;;;;;9.20;99.90;;;;;;5026192;28;20041;-66
2022/01/03 09:35:46;;;;;;;26.77;4.65;;;9.20;99.90;;;;;;5023691;28;20016;-66
2022/01/03 09:38:12;;;;;;;29.23;4.60;;;9.20;99.90;;;;;;5005874;28;20033;-66
2022/01/03 09:40:39;;;;;;;22.35;3.20;;;9.20;99.90;;;;;;5024593;28;20115;-66
2022/01/03 09:43:09;;;;;;;35.65;4.75;;;9.20;99.90;;;;;;5022808;28;20041;-65
2022/01/03 09:45:37;;;;;;;26.75;4.25;;;9.20;99.90;;;;;;5027772;28;20045;-66
2022/01/03 09:48:04;;;;;;;21.17;4.28;;;9.30;99.90;;;;;;5006529;28;20049;-65
2022/01/03 09:50:32;;;;;;;27.20;3.70;;;9.30;99.90;;;;;;5013223;28;20048;-66
2022/01/03 09:52:58;;;;;;;19.08;3.58;;;9.30;99.90;;;;;;5023475;28;20109;-66
2022/01/03 09:55:24;;;;;;;35.08;4.05;;;9.30;99.90;;;;;;5019184;28;20117;-66
2022/01/03 09:57:50;;;;;;;22.25;3.67;;;9.30;99.90;;;;;;5010272;28;20410;-66
2022/01/03 10:00:22;;;;;;;27.52;3.92;;;9.40;99.90;;;;;;5004425;28;20509;-66
2022/01/03 10:02:49;;;;;;;26.52;3.92;;;9.40;99.90;;;;;;5007978;28;20103;-66
2022/01/03 10:05:15;;;;;;;25.23;4.25;;;9.50;99.90;;;;;;5024820;28;20033;-65
2022/01/03 10:07:41;;;;;;;18.10;3.20;;;9.50;99.90;;;;;;5001735;28;20367;-65
2022/01/03 10:10:08;;;;;;;33.60;4.03;;;9.50;99.90;;;;;;5028106;28;20114;-65
2022/01/03 10:12:34;;;;;;;;;;;9.50;99.90;;;;;;5007043;28;20127;-65
2022/01/03 10:14:59;;;;;;;28.45;3.60;;;9.60;99.90;;;;;;5031234;28;19927;-65
2022/01/03 10:17:25;;;;;;;22.87;3.67;;;9.60;99.90;;;;;;4985541;28;20180;-66
2022/01/03 10:19:53;;;;;;;24.27;4.17;;;9.60;99.90;;;;;;5019273;28;20087;-66
2022/01/03 10:22:24;;;;;;;28.70;3.95;;;9.60;99.90;;;;;;5027858;28;20374;-65
2022/01/03 10:24:50;;;;;;;21.65;3.65;;;9.70;99.90;;;;;;5007296;28;20037;-65
2022/01/03 10:27:15;;;;;;;25.45;3.80;;;9.70;99.90;;;;;;5029647;28;20047;-66
2022/01/03 10:29:41;;;;;;;26.50;3.23;;;9.70;99.90;;;;;;5032763;28;20429;-65
2022/01/03 10:32:11;;;;;;;21.30;3.50;;;9.70;99.90;;;;;;4991369;28;20095;-66
2022/01/03 10:34:37;;;;;;;33.22;5.00;;;9.80;99.90;;;;;;5009900;28;20056;-65
2022/01/03 10:37:13;;;;;;;23.37;3.60;;;9.80;99.90;;;;;;5005202;28;20490;-66
2022/01/03 10:39:38;;;;;;;25.02;3.63;;;9.80;99.90;;;;;;5011479;28;20330;-66
2022/01/03 10:42:19;;;;;;;23.55;5.65;;;9.80;99.90;;;;;;5003637;28;20041;-66
2022/01/03 10:44:45;;;;;;;12.77;2.88;;;9.80;99.90;;;;;;4989827;28;20449;-65
2022/01/03 10:47:16;;;;;;;;;;;9.80;99.90;;;;;;5011022;28;20049;-66
2022/01/03 10:49:45;;;;;;;24.10;4.25;;;9.90;99.90;;;;;;5030162;28;19917;-66
2022/01/03 10:52:18;;;;;;;21.75;4.95;;;9.90;99.90;;;;;;4986643;28;20124;-66
2022/01/03 10:55:09;;;;;;;27.83;3.75;;;9.90;99.90;;;;;;5017702;28;20056;-65
2022/01/03 10:57:45;;;;;;;19.15;3.15;;;9.90;99.90;;;;;;5004659;28;20037;-66
2022/01/03 11:00:17;;;;;;;19.67;5.47;;;9.90;99.90;;;;;;4995985;28;20095;-66
2022/01/03 11:03:07;;;;;;;21.40;4.00;;;9.90;99.90;;;;;;5022664;28;20084;-66
2022/01/03 11:05:43;;;;;;;17.48;3.92;;;10.00;99.90;;;;;;5004678;28;20040;-66
2022/01/03 11:10:44;;;;;;;18.50;3.27;;;10.00;99.90;;;;;;5019682;28;20083;-66
2022/01/03 11:13:15;;;;;;;19.55;3.53;;;10.10;99.90;;;;;;5010716;28;20048;-66
2022/01/03 11:15:51;;;;;;;17.17;3.38;;;10.10;99.90;;;;;;5008342;28;20046;-66
2022/01/03 11:18:18;;;;;;;27.45;3.22;;;10.10;99.90;;;;;;5013935;28;20051;-65
2022/01/03 11:20:49;;;;;;;20.20;3.40;;;10.20;99.90;;;;;;5026707;28;20034;-66
2022/01/03 11:23:22;;;;;;;16.05;3.50;;;10.10;99.90;;;;;;5035521;28;20032;-66
2022/01/03 11:25:49;;;;;;;22.65;4.47;;;10.20;99.90;;;;;;5025838;28;20046;-66
2022/01/03 11:28:15;;;;;;;16.55;2.88;;;10.20;99.90;;;;;;5010328;28;20247;-67
2022/01/03 11:30:43;;;;;;;15.97;2.90;;;10.20;99.90;;;;;;5020189;28;20144;-66
2022/01/03 11:33:10;;;;;;;16.40;2.45;;;10.20;99.90;;;;;;5036209;28;20276;-66
2022/01/03 11:35:36;;;;;;;19.50;3.63;;;10.30;99.90;;;;;;5029597;28;20033;-66
2022/01/03 11:38:03;;;;;;;22.50;2.95;;;10.30;99.90;;;;;;5029532;28;20041;-65
2022/01/03 11:40:29;;;;;;;16.17;2.90;;;10.30;99.90;;;;;;5030457;28;20068;-66
2022/01/03 11:42:55;;;;;;;22.47;3.13;;;10.30;99.90;;;;;;5015674;28;20441;-66
2022/01/03 11:45:21;;;;;;;16.60;3.53;;;10.30;99.90;;;;;;5026653;28;20468;-66
2022/01/03 11:47:48;;;;;;;14.40;2.90;;;10.30;99.90;;;;;;5024353;28;20041;-66
2022/01/03 11:50:14;;;;;;;14.00;3.28;;;10.30;99.90;;;;;;5030747;28;20394;-66
2022/01/03 11:52:42;;;;;;;18.83;2.95;;;10.40;99.90;;;;;;5012571;28;20385;-66
2022/01/03 11:55:12;;;;;;;20.55;2.90;;;10.40;99.90;;;;;;5021814;28;20041;-65
2022/01/03 12:03:41;;;;;;;24.25;4.85;;;10.40;99.90;;;;;;5010166;28;20062;-66
2022/01/03 12:06:09;;;;;;;17.05;3.42;;;10.50;99.90;;;;;;5001510;28;20056;-66
2022/01/03 12:08:39;;;;;;;17.70;3.58;;;10.40;99.90;;;;;;5017377;28;20037;-66
2022/01/03 12:11:26;;;;;;;16.15;2.90;;;10.50;99.90;;;;;;5013611;28;20052;-66
2022/01/03 12:13:54;;;;;;;19.83;2.90;;;10.50;99.90;;;;;;5002212;28;20045;-65
2022/01/03 12:16:38;;;;;;;18.33;2.72;;;10.60;99.90;;;;;;5026999;28;20276;-66
2022/01/03 12:19:10;;;;;;;21.42;2.75;;;10.60;99.90;;;;;;5022367;28;20026;-65
2022/01/03 12:21:48;;;;;;;25.40;3.40;;;10.60;99.90;;;;;;5008224;28;20050;-66
2022/01/03 12:24:29;;;;;;;20.33;2.67;;;10.60;99.90;;;;;;5026069;28;20128;-66
2022/01/03 12:27:26;;;;;;;21.10;3.65;;;10.60;99.90;;;;;;5009601;28;20072;-66
2022/01/03 12:29:57;;;;;;;23.77;3.33;;;10.60;99.90;;;;;;4994930;28;20060;-65
2022/01/03 12:32:27;;;;;;;23.73;4.20;;;10.60;99.90;;;;;;5001686;28;20045;-66
2022/01/03 12:35:12;;;;;;;25.73;3.30;;;10.60;99.90;;;;;;5008795;28;20096;-66
2022/01/03 12:37:42;;;;;;;22.45;3.45;;;10.70;99.90;;;;;;5008633;28;20037;-66
2022/01/03 12:40:07;;;;;;;17.33;4.22;;;10.70;99.90;;;;;;5010445;28;20045;-65
2022/01/03 12:42:48;;;;;;;23.00;3.53;;;10.70;99.90;;;;;;5003291;28;20372;-65
2022/01/03 12:45:29;;;;;;;23.08;3.17;;;10.60;99.90;;;;;;5027231;28;20037;-66
2022/01/03 12:48:19;;;;;;;15.45;4.88;;;10.70;99.90;;;;;;5013382;28;20429;-66
2022/01/03 12:50:44;;;;;;;22.38;2.92;;;10.70;99.90;;;;;;4986115;28;20076;-65
2022/01/03 12:53:32;;;;;;;18.90;3.23;;;10.70;99.90;;;;;;5030629;28;20037;-66
2022/01/03 12:56:00;;;;;;;15.20;2.67;;;10.80;99.90;;;;;;5009378;28;20038;-66
2022/01/03 12:58:26;;;;;;;17.40;2.90;;;10.70;99.90;;;;;;5012523;28;20354;-66
2022/01/03 13:01:05;;;;;;;20.40;3.67;;;10.70;99.90;;;;;;5005470;28;20042;-67
2022/01/03 13:03:44;;;;;;;29.40;4.28;;;10.60;99.90;;;;;;5015983;28;20474;-66
2022/01/03 13:06:14;;;;;;;21.00;3.55;;;10.60;99.90;;;;;;5017579;28;20068;-67
2022/01/03 13:08:48;;;;;;;22.13;4.03;;;10.70;99.90;;;;;;5034072;28;20065;-66
2022/01/03 13:11:35;;;;;;;26.50;4.55;;;10.70;99.90;;;;;;5008986;28;20096;-66
2022/01/03 13:14:20;;;;;;;22.88;3.22;;;10.60;99.90;;;;;;5008871;28;20132;-66